createdAt,value
2022-12-01T00:01:08.562Z,73.37
2022-12-01T00:03:35.696Z,73.56
2022-12-01T00:06:05.260Z,74.14
2022-12-01T00:08:32.325Z,74.36
2022-12-01T00:11:06.706Z,73.77
2022-12-01T00:13:34.022Z,73.41
2022-12-01T00:16:12.034Z,73.30
2022-12-01T00:18:38.634Z,72.96
2022-12-01T00:21:05.362Z,72.84
2022-12-01T00:23:31.990Z,73.17
2022-12-01T00:26:05.453Z,72.96
2022-12-01T00:28:32.031Z,72.78
2022-12-01T00:30:58.930Z,72.28
2022-12-01T00:33:25.470Z,72.65
2022-12-01T00:35:58.740Z,73.06
2022-12-01T00:38:25.753Z,73.42
2022-12-01T00:40:52.281Z,74.61
2022-12-01T00:43:18.760Z,74.77
2022-12-01T00:45:45.310Z,74.21
2022-12-01T00:48:11.915Z,74.45
2022-12-01T00:50:38.492Z,75.00
2022-12-01T00:53:05.019Z,74.86
2022-12-01T00:55:31.528Z,74.79
2022-12-01T00:57:59.173Z,74.86
2022-12-01T01:00:25.738Z,76.01
2022-12-01T01:02:52.325Z,75.93
2022-12-01T01:05:18.965Z,75.54
2022-12-01T01:07:45.603Z,75.54
2022-12-01T01:10:12.639Z,76.32
2022-12-01T01:12:39.153Z,76.43
2022-12-01T01:15:07.416Z,76.16
2022-12-01T01:17:34.335Z,76.78
2022-12-01T01:20:00.881Z,76.46
2022-12-01T01:22:27.423Z,76.16
2022-12-01T01:24:53.957Z,76.40
2022-12-01T01:27:20.631Z,76.55
2022-12-01T01:29:47.575Z,76.77
2022-12-01T01:32:14.421Z,77.39
2022-12-01T01:34:40.945Z,76.67
2022-12-01T01:37:07.504Z,76.38
2022-12-01T01:39:34.076Z,77.44
2022-12-01T01:42:00.585Z,76.92
2022-12-01T01:44:48.804Z,76.90
2022-12-01T01:47:26.922Z,76.84
2022-12-01T01:49:55.987Z,77.37
2022-12-01T01:52:23.610Z,77.61
2022-12-01T01:54:54.737Z,78.24
2022-12-01T01:57:26.834Z,77.86
2022-12-01T01:59:59.162Z,78.09
2022-12-01T02:02:25.773Z,78.19
2022-12-01T02:04:58.605Z,77.66
2022-12-01T02:07:25.505Z,78.71
2022-12-01T02:09:54.210Z,78.30
2022-12-01T02:12:46.517Z,78.62
2022-12-01T02:15:23.294Z,78.30
2022-12-01T02:18:15.155Z,78.63
2022-12-01T02:21:00.081Z,78.32
2022-12-01T02:24:03.393Z,78.88
2022-12-01T02:26:45.099Z,78.90
2022-12-01T02:29:45.564Z,78.68
2022-12-01T02:32:50.299Z,78.95
2022-12-01T02:35:29.243Z,77.96
2022-12-01T02:38:10.735Z,79.43
2022-12-01T02:40:46.898Z,79.65
2022-12-01T02:43:52.907Z,80.83
2022-12-01T02:46:28.171Z,81.89
2022-12-01T02:48:59.781Z,81.57
2022-12-01T02:51:32.252Z,82.08
2022-12-01T02:54:00.631Z,82.24
2022-12-01T02:56:27.656Z,82.36
2022-12-01T02:58:54.361Z,83.27
2022-12-01T03:01:46.051Z,81.92
2022-12-01T03:04:40.609Z,82.88
2022-12-01T03:07:12.225Z,83.56
2022-12-01T03:09:47.515Z,84.16
2022-12-01T03:12:42.150Z,84.68
2022-12-01T03:15:12.174Z,85.01
2022-12-01T03:18:19.874Z,85.09
2022-12-01T03:20:58.166Z,86.01
2022-12-01T03:23:29.422Z,85.94
2022-12-01T03:25:59.091Z,85.77
2022-12-01T03:28:37.869Z,85.50
2022-12-01T03:31:09.258Z,85.21
2022-12-01T03:33:47.058Z,85.46
2022-12-01T03:36:20.031Z,86.37
2022-12-01T03:38:52.223Z,87.17
2022-12-01T03:41:25.265Z,86.32
2022-12-01T03:43:57.608Z,87.42
2022-12-01T03:46:41.281Z,86.45
2022-12-01T03:49:09.761Z,88.35
2022-12-01T03:51:48.261Z,86.96
2022-12-01T03:54:33.727Z,87.98
2022-12-01T03:57:05.494Z,86.85
2022-12-01T03:59:35.960Z,86.69
2022-12-01T04:02:02.709Z,88.38
2022-12-01T04:04:29.264Z,86.85
2022-12-01T04:06:55.768Z,88.30
2022-12-01T04:09:22.287Z,88.15
2022-12-01T04:12:07.136Z,88.72
2022-12-01T04:14:33.673Z,89.10
2022-12-01T04:17:00.200Z,87.57
2022-12-01T04:19:26.716Z,87.88
2022-12-01T04:21:53.466Z,86.69
2022-12-01T04:24:20.013Z,86.55
2022-12-01T04:26:46.902Z,89.55
2022-12-01T04:29:13.759Z,88.97
2022-12-01T04:31:40.816Z,88.62
2022-12-01T04:34:07.615Z,89.21
2022-12-01T04:36:34.941Z,90.33
2022-12-01T04:39:02.335Z,89.80
2022-12-01T04:41:28.943Z,90.60
2022-12-01T04:43:56.065Z,90.61
2022-12-01T04:46:24.402Z,90.49
2022-12-01T04:48:51.064Z,89.15
2022-12-01T04:51:17.945Z,88.32
2022-12-01T04:53:44.656Z,88.92
2022-12-01T04:56:11.346Z,88.49
2022-12-01T04:58:38.026Z,88.33
2022-12-01T05:01:06.884Z,89.93
2022-12-01T05:03:37.592Z,88.70
2022-12-01T05:06:10.905Z,87.88
2022-12-01T05:08:38.058Z,87.85
2022-12-01T05:11:07.726Z,87.91
2022-12-01T05:13:42.321Z,90.81
2022-12-01T05:16:14.960Z,91.39
2022-12-01T05:18:42.243Z,89.91
2022-12-01T05:21:10.349Z,89.21
2022-12-01T05:23:38.104Z,88.86
2022-12-01T05:26:08.948Z,88.45
2022-12-01T05:28:36.026Z,88.49
2022-12-01T05:31:03.159Z,88.86
2022-12-01T05:33:30.222Z,88.32
2022-12-01T05:35:57.132Z,87.76
2022-12-01T05:38:23.745Z,87.90
2022-12-01T05:40:52.572Z,87.39
2022-12-01T05:43:28.578Z,89.82
2022-12-01T05:45:56.873Z,91.63
2022-12-01T05:48:23.878Z,92.14
2022-12-01T05:50:50.767Z,92.34
2022-12-01T05:53:17.833Z,92.56
2022-12-01T05:55:44.777Z,92.79
2022-12-01T05:58:11.757Z,91.85
2022-12-01T06:00:45.254Z,91.80
2022-12-01T06:03:12.904Z,92.34
2022-12-01T06:05:39.865Z,90.74
2022-12-01T06:08:07.013Z,91.10
2022-12-01T06:10:33.923Z,93.21
2022-12-01T06:13:00.398Z,93.59
2022-12-01T06:15:27.277Z,93.24
2022-12-01T06:17:53.905Z,93.05
2022-12-01T06:20:20.508Z,93.47
2022-12-01T06:22:47.028Z,93.34
2022-12-01T06:25:13.530Z,93.16
2022-12-01T06:27:40.243Z,92.85
2022-12-01T06:30:07.486Z,93.97
2022-12-01T06:32:34.044Z,93.09
2022-12-01T06:35:00.796Z,93.75
2022-12-01T06:37:28.262Z,94.53
2022-12-01T06:39:54.898Z,93.41
2022-12-01T06:42:21.490Z,94.73
2022-12-01T06:44:48.028Z,93.93
2022-12-01T06:47:15.923Z,94.79
2022-12-01T06:49:42.429Z,94.57
2022-12-01T06:52:10.089Z,95.08
2022-12-01T06:54:37.606Z,94.20
2022-12-01T06:57:04.812Z,94.41
2022-12-01T06:59:31.681Z,94.52
2022-12-01T07:01:58.976Z,95.16
2022-12-01T07:04:25.643Z,95.73
2022-12-01T07:06:52.191Z,96.30
2022-12-01T07:09:18.795Z,95.73
2022-12-01T07:11:45.302Z,96.40
2022-12-01T07:14:22.059Z,95.81
2022-12-01T07:16:48.691Z,96.21
2022-12-01T07:19:15.241Z,96.38
2022-12-01T07:21:41.772Z,97.12
2022-12-01T07:24:08.569Z,97.37
2022-12-01T07:26:35.130Z,97.73
2022-12-01T07:29:01.647Z,97.60
2022-12-01T07:31:28.205Z,97.72
2022-12-01T07:33:54.730Z,97.78
2022-12-01T07:36:21.274Z,97.75
2022-12-01T07:38:47.901Z,97.90
2022-12-01T07:41:16.735Z,97.49
2022-12-01T07:43:43.429Z,97.92
2022-12-01T07:46:18.693Z,97.58
2022-12-01T07:48:47.133Z,96.98
2022-12-01T07:51:16.730Z,95.48
2022-12-01T07:53:44.771Z,94.89
2022-12-01T07:56:11.663Z,95.30
2022-12-01T07:58:38.521Z,94.13
2022-12-01T08:01:10.441Z,93.29
2022-12-01T08:03:37.656Z,92.59
2022-12-01T08:06:05.924Z,92.93
2022-12-01T08:08:35.236Z,92.09
2022-12-01T08:11:04.361Z,90.57
2022-12-01T08:13:31.294Z,89.21
2022-12-01T08:15:58.071Z,89.58
2022-12-01T08:18:24.865Z,85.26
2022-12-01T08:20:51.802Z,83.57
2022-12-01T08:23:18.436Z,81.39
2022-12-01T08:25:44.994Z,79.47
2022-12-01T08:28:11.563Z,78.45
2022-12-01T08:30:38.138Z,77.07
2022-12-01T08:33:04.700Z,74.81
2022-12-01T08:35:31.184Z,75.58
2022-12-01T08:37:57.700Z,78.23
2022-12-01T08:40:24.281Z,75.14
2022-12-01T08:42:53.028Z,69.13
2022-12-01T08:45:20.408Z,67.66
2022-12-01T08:47:47.556Z,68.85
2022-12-01T08:50:14.263Z,64.89
2022-12-01T08:52:40.870Z,66.59
2022-12-01T08:55:08.202Z,64.99
2022-12-01T08:57:34.773Z,64.70
2022-12-01T09:00:01.315Z,64.26
2022-12-01T09:02:28.193Z,63.32
2022-12-01T09:04:55.830Z,59.50
2022-12-01T09:07:26.358Z,53.92
2022-12-01T09:09:53.289Z,57.32
2022-12-01T09:12:19.870Z,60.39
2022-12-01T09:14:48.371Z,54.70
2022-12-01T09:17:16.649Z,51.33
2022-12-01T09:19:44.069Z,50.88
2022-12-01T09:22:11.702Z,51.33
2022-12-01T09:24:38.452Z,57.10
2022-12-01T09:27:05.314Z,48.45
2022-12-01T09:29:32.546Z,49.68
2022-12-01T09:32:00.405Z,49.95
2022-12-01T09:34:29.118Z,46.45
2022-12-01T09:36:57.681Z,47.01
2022-12-01T09:39:24.737Z,45.99
2022-12-01T09:42:08.553Z,45.53
2022-12-01T09:44:44.392Z,44.67
2022-12-01T09:47:30.793Z,44.43
2022-12-01T09:50:05.687Z,44.16
2022-12-01T09:52:42.230Z,43.87
2022-12-01T09:55:17.609Z,44.12
2022-12-01T09:57:47.878Z,43.20
2022-12-01T10:00:27.820Z,43.75
2022-12-01T10:03:01.101Z,43.91
2022-12-01T10:05:36.457Z,44.52
2022-12-01T10:08:07.986Z,45.01
2022-12-01T10:10:43.070Z,44.60
2022-12-01T10:13:17.369Z,45.81
2022-12-01T10:15:50.532Z,45.88
2022-12-01T10:18:26.085Z,46.56
2022-12-01T10:20:52.816Z,44.81
2022-12-01T10:23:22.068Z,47.20
2022-12-01T10:26:09.843Z,46.04
2022-12-01T10:29:05.330Z,46.40
2022-12-01T10:31:47.701Z,45.48
2022-12-01T10:34:25.219Z,43.30
2022-12-01T10:36:51.785Z,41.71
2022-12-01T10:39:33.693Z,40.53
2022-12-01T10:42:06.809Z,40.31
2022-12-01T10:44:34.700Z,39.53
2022-12-01T10:47:02.318Z,37.54
2022-12-01T10:49:40.076Z,36.14
2022-12-01T10:52:07.633Z,35.84
2022-12-01T10:54:38.987Z,33.51
2022-12-01T10:57:07.755Z,34.94
2022-12-01T10:59:54.433Z,33.09
2022-12-01T11:02:23.712Z,34.60
2022-12-01T11:04:55.128Z,34.21
2022-12-01T11:07:46.462Z,34.24
2022-12-01T11:10:23.905Z,36.07
2022-12-01T11:13:23.746Z,36.67
2022-12-01T11:15:58.957Z,36.89
2022-12-01T11:18:30.008Z,36.49
2022-12-01T11:21:27.195Z,37.75
2022-12-01T11:23:55.760Z,37.76
2022-12-01T11:26:34.564Z,38.00
2022-12-01T11:29:07.684Z,38.06
2022-12-01T11:31:48.029Z,37.53
2022-12-01T11:34:22.511Z,36.54
2022-12-01T11:36:53.516Z,35.47
2022-12-01T11:39:39.915Z,34.30
2022-12-01T11:42:15.104Z,32.29
2022-12-01T11:44:51.705Z,32.30
2022-12-01T11:47:27.888Z,31.62
2022-12-01T11:50:03.345Z,31.04
2022-12-01T11:52:34.516Z,31.17
2022-12-01T11:55:13.082Z,33.45
2022-12-01T11:57:42.774Z,35.48
2022-12-01T12:00:17.492Z,36.55
2022-12-01T12:02:57.740Z,37.57
2022-12-01T12:05:57.601Z,38.25
2022-12-01T12:09:00.128Z,38.49
2022-12-01T12:11:39.238Z,37.90
2022-12-01T12:14:13.133Z,37.23
2022-12-01T12:16:54.798Z,36.78
2022-12-01T12:19:33.901Z,37.23
2022-12-01T12:22:24.503Z,36.95
2022-12-01T12:25:09.735Z,35.75
2022-12-01T12:28:06.710Z,35.13
2022-12-01T12:31:00.997Z,33.40
2022-12-01T12:33:41.070Z,34.09
2022-12-01T12:36:26.113Z,33.58
2022-12-01T12:39:16.277Z,33.17
2022-12-01T12:41:46.580Z,32.42
2022-12-01T12:44:37.954Z,33.72
2022-12-01T12:47:36.878Z,34.69
2022-12-01T12:50:25.752Z,33.17
2022-12-01T12:52:59.471Z,34.44
2022-12-01T12:55:57.994Z,35.07
2022-12-01T12:58:34.545Z,33.78
2022-12-01T13:01:07.094Z,33.02
2022-12-01T13:03:42.668Z,33.63
2022-12-01T13:06:15.859Z,33.30
2022-12-01T13:09:08.475Z,33.77
2022-12-01T13:11:59.526Z,34.50
2022-12-01T13:14:30.649Z,34.13
2022-12-01T13:17:25.501Z,34.14
2022-12-01T13:19:52.175Z,35.00
2022-12-01T13:22:24.626Z,34.78
2022-12-01T13:24:51.277Z,34.17
2022-12-01T13:27:22.149Z,34.26
2022-12-01T13:29:51.969Z,35.27
2022-12-01T13:32:30.677Z,35.10
2022-12-01T13:34:59.169Z,34.82
2022-12-01T13:37:31.936Z,35.14
2022-12-01T13:40:10.663Z,34.87
2022-12-01T13:42:39.755Z,34.82
2022-12-01T13:45:20.110Z,33.88
2022-12-01T13:47:46.562Z,34.99
2022-12-01T13:50:43.139Z,35.91
2022-12-01T13:53:19.976Z,35.96
2022-12-01T13:56:11.295Z,36.58
2022-12-01T13:58:47.586Z,37.70
2022-12-01T14:01:20.606Z,36.95
2022-12-01T14:03:53.630Z,37.10
2022-12-01T14:06:39.024Z,37.56
2022-12-01T14:09:16.245Z,37.30
2022-12-01T14:12:02.753Z,38.24
2022-12-01T14:14:36.679Z,38.31
2022-12-01T14:17:04.361Z,39.00
2022-12-01T14:19:46.356Z,39.46
2022-12-01T14:22:34.526Z,40.14
2022-12-01T14:25:01.933Z,40.62
2022-12-01T14:27:42.384Z,41.88
2022-12-01T14:30:45.056Z,42.14
2022-12-01T14:33:36.294Z,43.35
2022-12-01T14:36:06.490Z,44.09
2022-12-01T14:38:33.534Z,44.47
2022-12-01T14:41:00.186Z,45.38
2022-12-01T14:43:46.961Z,45.70
2022-12-01T14:46:20.984Z,46.58
2022-12-01T14:48:48.156Z,47.47
2022-12-01T14:51:28.259Z,47.85
2022-12-01T14:53:57.184Z,47.61
2022-12-01T14:56:25.956Z,49.00
2022-12-01T14:58:55.479Z,49.85
2022-12-01T15:01:23.098Z,51.12
2022-12-01T15:03:52.286Z,52.21
2022-12-01T15:06:24.467Z,52.21
2022-12-01T15:12:09.580Z,53.43
2022-12-01T15:14:49.527Z,54.59
2022-12-01T15:17:35.839Z,55.54
2022-12-01T15:20:03.206Z,55.51
2022-12-01T15:22:33.343Z,57.05
2022-12-01T15:25:13.433Z,57.22
2022-12-01T15:27:39.995Z,57.75
2022-12-01T15:30:14.271Z,58.54
2022-12-01T15:32:45.691Z,58.91
2022-12-01T15:35:20.954Z,60.00
2022-12-01T15:37:48.388Z,59.71
2022-12-01T15:43:24.694Z,59.81
2022-12-01T15:45:59.682Z,61.04
2022-12-01T15:48:33.136Z,61.15
2022-12-01T15:51:08.893Z,62.35
2022-12-01T15:53:45.050Z,62.03
2022-12-01T15:56:12.498Z,62.83
2022-12-01T15:59:09.639Z,62.92
2022-12-01T16:01:37.270Z,63.59
2022-12-01T16:04:07.508Z,64.17
2022-12-01T16:06:38.389Z,64.96
2022-12-01T16:09:22.302Z,65.82
2022-12-01T16:12:22.705Z,63.22
2022-12-01T16:14:50.907Z,63.72
2022-12-01T16:17:17.687Z,66.35
2022-12-01T16:19:45.519Z,66.57
2022-12-01T16:22:12.064Z,67.21
2022-12-01T16:24:46.895Z,67.03
2022-12-01T16:27:30.844Z,66.96
2022-12-01T16:30:01.344Z,67.68
2022-12-01T16:32:42.178Z,65.79
2022-12-01T16:35:20.837Z,67.93
2022-12-01T16:37:47.413Z,69.91
2022-12-01T16:40:14.918Z,69.89
2022-12-01T16:42:41.427Z,70.57
2022-12-01T16:45:13.733Z,70.49
2022-12-01T16:47:41.536Z,70.30
2022-12-01T16:50:14.121Z,70.82
2022-12-01T16:52:45.528Z,71.00
2022-12-01T16:55:27.060Z,71.23
2022-12-01T16:57:53.646Z,71.30
2022-12-01T17:00:20.631Z,71.62
2022-12-01T17:02:47.243Z,72.21
2022-12-01T17:05:13.956Z,73.23
2022-12-01T17:07:40.506Z,73.10
2022-12-01T17:10:07.599Z,73.37
2022-12-01T17:12:34.109Z,73.56
2022-12-01T17:15:00.617Z,73.80
2022-12-01T17:17:29.689Z,74.60
2022-12-01T17:19:56.241Z,75.01
2022-12-01T17:22:23.003Z,75.12
2022-12-01T17:24:50.042Z,75.43
2022-12-01T17:27:19.255Z,76.43
2022-12-01T17:29:46.423Z,76.59
2022-12-01T17:32:14.481Z,75.52
2022-12-01T17:34:40.999Z,75.93
2022-12-01T17:37:07.814Z,75.82
2022-12-01T17:39:34.325Z,77.15
2022-12-01T17:42:00.951Z,77.02
2022-12-01T17:44:27.775Z,77.18
2022-12-01T17:46:54.541Z,76.90
2022-12-01T17:49:21.153Z,77.63
2022-12-01T17:51:47.703Z,77.47
2022-12-01T17:54:14.530Z,77.94
2022-12-01T17:56:41.180Z,77.45
2022-12-01T17:59:07.708Z,77.46
2022-12-01T18:01:34.383Z,78.54
2022-12-01T18:04:01.402Z,78.91
2022-12-01T18:06:28.128Z,78.16
2022-12-01T18:08:55.076Z,78.32
2022-12-01T18:11:22.861Z,79.08
2022-12-01T18:13:51.441Z,79.82
2022-12-01T18:16:26.952Z,78.67
2022-12-01T18:18:54.721Z,79.36
2022-12-01T18:21:23.869Z,79.44
2022-12-01T18:23:51.265Z,80.01
2022-12-01T18:26:19.551Z,78.95
2022-12-01T18:28:46.142Z,80.83
2022-12-01T18:31:16.161Z,80.42
2022-12-01T18:33:44.722Z,79.64
2022-12-01T18:36:18.512Z,80.27
2022-12-01T18:38:47.154Z,80.19
2022-12-01T18:41:14.381Z,80.69
2022-12-01T18:43:41.455Z,81.15
2022-12-01T18:46:09.550Z,81.73
2022-12-01T18:48:36.134Z,83.19
2022-12-01T18:51:05.129Z,82.52
2022-12-01T18:53:32.208Z,81.94
2022-12-01T18:56:06.796Z,83.05
2022-12-01T18:58:33.687Z,83.59
2022-12-01T19:01:01.400Z,84.07
2022-12-01T19:03:32.482Z,84.16
2022-12-01T19:05:59.282Z,84.77
2022-12-01T19:08:25.845Z,84.14
2022-12-01T19:11:00.333Z,84.47
2022-12-01T19:13:27.430Z,84.58
2022-12-01T19:15:54.059Z,84.33
2022-12-01T19:18:20.620Z,84.95
2022-12-01T19:20:47.261Z,84.44
2022-12-01T19:23:13.965Z,83.92
2022-12-01T19:25:40.501Z,85.44
2022-12-01T19:28:08.115Z,83.34
2022-12-01T19:30:34.996Z,84.43
2022-12-01T19:33:01.490Z,82.83
2022-12-01T19:35:28.005Z,84.27
2022-12-01T19:37:54.518Z,85.53
2022-12-01T19:40:21.032Z,86.26
2022-12-01T19:42:47.580Z,87.03
2022-12-01T19:45:14.306Z,87.80
2022-12-01T19:47:40.812Z,88.09
2022-12-01T19:50:07.918Z,86.67
2022-12-01T19:52:36.026Z,87.57
2022-12-01T19:55:03.160Z,87.76
2022-12-01T19:57:29.712Z,87.61
2022-12-01T19:59:56.222Z,84.99
2022-12-01T20:02:28.866Z,86.33
2022-12-01T20:04:56.557Z,86.30
2022-12-01T20:07:23.350Z,85.48
2022-12-01T20:09:50.332Z,85.88
2022-12-01T20:12:17.178Z,86.56
2022-12-01T20:14:43.701Z,86.75
2022-12-01T20:17:15.542Z,87.23
2022-12-01T20:19:42.512Z,86.81
2022-12-01T20:22:09.030Z,87.71
2022-12-01T20:24:36.772Z,87.72
2022-12-01T20:27:03.405Z,88.46
2022-12-01T20:29:30.240Z,88.33
2022-12-01T20:31:59.869Z,88.18
2022-12-01T20:34:32.648Z,88.47
2022-12-01T20:36:59.501Z,88.10
2022-12-01T20:39:27.021Z,88.75
2022-12-01T20:41:53.703Z,87.82
2022-12-01T20:44:20.638Z,87.86
2022-12-01T20:46:47.720Z,88.27
2022-12-01T20:49:16.980Z,88.62
2022-12-01T20:51:43.749Z,89.32
2022-12-01T20:54:30.002Z,89.07
2022-12-01T20:56:57.793Z,89.34
2022-12-01T20:59:24.848Z,88.77
2022-12-01T21:01:51.357Z,89.16
2022-12-01T21:04:18.002Z,89.10
2022-12-01T21:06:44.702Z,90.78
2022-12-01T21:09:13.047Z,91.05
2022-12-01T21:12:04.670Z,91.56
2022-12-01T21:14:42.267Z,91.02
2022-12-01T21:17:21.950Z,90.98
2022-12-01T21:20:21.329Z,91.71
2022-12-01T21:22:49.984Z,92.61
2022-12-01T21:25:21.174Z,92.93
2022-12-01T21:27:48.401Z,92.93
2022-12-01T21:30:17.113Z,93.22
2022-12-01T21:32:44.868Z,93.95
2022-12-01T21:35:18.825Z,94.31
2022-12-01T21:37:46.225Z,93.78
2022-12-01T21:40:18.636Z,94.28
2022-12-01T21:42:45.442Z,95.09
2022-12-01T21:45:28.404Z,95.08
2022-12-01T21:48:13.704Z,95.69
2022-12-01T21:50:40.262Z,95.56
2022-12-01T21:53:18.329Z,95.42
2022-12-01T21:55:47.066Z,95.07
2022-12-01T21:58:29.626Z,93.38
2022-12-01T22:00:59.515Z,93.98
2022-12-01T22:03:46.329Z,94.54
2022-12-01T22:06:30.937Z,94.38
2022-12-01T22:09:11.783Z,95.62
2022-12-01T22:11:38.325Z,96.12
2022-12-01T22:14:15.491Z,95.76
2022-12-01T22:16:49.942Z,95.21
2022-12-01T22:19:16.409Z,95.44
2022-12-01T22:21:48.517Z,96.48
2022-12-01T22:24:23.951Z,96.80
2022-12-01T22:26:57.973Z,97.00
2022-12-01T22:29:34.173Z,96.74
2022-12-01T22:32:13.126Z,97.13
2022-12-01T22:34:44.961Z,96.76
2022-12-01T22:37:40.165Z,96.59
2022-12-01T22:40:38.520Z,96.84
2022-12-01T22:43:17.281Z,96.65
2022-12-01T22:45:46.609Z,96.41
2022-12-01T22:48:22.706Z,96.47
2022-12-01T22:50:51.903Z,96.46
2022-12-01T22:53:25.618Z,96.40
2022-12-01T22:55:56.498Z,96.57
2022-12-01T22:58:31.399Z,96.69
2022-12-01T23:01:07.796Z,96.62
2022-12-01T23:03:34.592Z,96.97
2022-12-01T23:06:01.441Z,96.67
2022-12-01T23:08:27.956Z,96.58
2022-12-01T23:10:54.490Z,96.45
2022-12-01T23:13:23.219Z,96.79
2022-12-01T23:15:52.965Z,95.77
2022-12-01T23:18:24.569Z,95.69
2022-12-01T23:20:56.398Z,95.69
2022-12-01T23:23:27.409Z,95.69
2022-12-01T23:25:54.242Z,95.41
2022-12-01T23:28:21.311Z,95.52
2022-12-01T23:30:50.937Z,95.38
2022-12-01T23:33:29.729Z,96.04
2022-12-01T23:36:00.626Z,96.01
2022-12-01T23:38:42.324Z,96.20
2022-12-01T23:41:25.705Z,96.11
2022-12-01T23:43:55.446Z,96.13
2022-12-01T23:46:25.167Z,96.29
2022-12-01T23:48:56.403Z,96.59
2022-12-01T23:51:28.127Z,96.32
2022-12-01T23:53:56.537Z,96.45
2022-12-01T23:56:26.711Z,96.97
2022-12-01T23:58:55.787Z,96.70
